sensor_id;sensor_type;location;lat;lon;timestamp;P1;durP1;ratioP1;P2;durP2;ratioP2
22176;SDS011;11254;50.098;8.726;2023-06-26T00:02:54;12.82;;;8.40;;
22176;SDS011;11254;50.098;8.726;2023-06-26T00:05:23;13.07;;;7.63;;
22176;SDS011;11254;50.098;8.726;2023-06-26T00:07:51;11.60;;;8.05;;
22176;SDS011;11254;50.098;8.726;2023-06-26T00:10:23;13.00;;;8.35;;
22176;SDS011;11254;50.098;8.726;2023-06-26T00:12:52;12.68;;;8.85;;
22176;SDS011;11254;50.098;8.726;2023-06-26T00:15:20;12.30;;;7.90;;
22176;SDS011;11254;50.098;8.726;2023-06-26T00:17:49;15.05;;;8.23;;
22176;SDS011;11254;50.098;8.726;2023-06-26T00:20:17;11.25;;;7.90;;
22176;SDS011;11254;50.098;8.726;2023-06-26T00:22:46;11.23;;;7.95;;
22176;SDS011;11254;50.098;8.726;2023-06-26T00:25:17;11.02;;;7.43;;
22176;SDS011;11254;50.098;8.726;2023-06-26T00:27:46;13.05;;;8.35;;
22176;SDS011;11254;50.098;8.726;2023-06-26T00:30:15;12.48;;;7.95;;
22176;SDS011;11254;50.098;8.726;2023-06-26T00:32:43;12.98;;;8.57;;
22176;SDS011;11254;50.098;8.726;2023-06-26T00:35:12;11.00;;;8.35;;
22176;SDS011;11254;50.098;8.726;2023-06-26T00:37:46;12.50;;;8.00;;
22176;SDS011;11254;50.098;8.726;2023-06-26T00:40:15;13.00;;;8.40;;
22176;SDS011;11254;50.098;8.726;2023-06-26T00:42:45;13.18;;;8.20;;
22176;SDS011;11254;50.098;8.726;2023-06-26T00:45:15;12.13;;;8.10;;
22176;SDS011;11254;50.098;8.726;2023-06-26T00:47:55;11.55;;;7.72;;
22176;SDS011;11254;50.098;8.726;2023-06-26T00:50:24;12.23;;;8.30;;
22176;SDS011;11254;50.098;8.726;2023-06-26T00:52:53;13.45;;;8.63;;
22176;SDS011;11254;50.098;8.726;2023-06-26T00:55:26;12.50;;;8.13;;
22176;SDS011;11254;50.098;8.726;2023-06-26T00:57:55;14.30;;;8.70;;
22176;SDS011;11254;50.098;8.726;2023-06-26T01:00:28;12.15;;;8.55;;
22176;SDS011;11254;50.098;8.726;2023-06-26T01:02:57;12.07;;;8.38;;
22176;SDS011;11254;50.098;8.726;2023-06-26T01:05:27;11.48;;;8.00;;
22176;SDS011;11254;50.098;8.726;2023-06-26T01:07:55;11.85;;;8.40;;
22176;SDS011;11254;50.098;8.726;2023-06-26T01:10:25;10.68;;;8.10;;
22176;SDS011;11254;50.098;8.726;2023-06-26T01:12:55;12.63;;;8.43;;
22176;SDS011;11254;50.098;8.726;2023-06-26T01:15:25;13.30;;;8.60;;
22176;SDS011;11254;50.098;8.726;2023-06-26T01:17:54;12.05;;;8.30;;
22176;SDS011;11254;50.098;8.726;2023-06-26T01:20:27;11.02;;;8.23;;
22176;SDS011;11254;50.098;8.726;2023-06-26T01:22:57;12.30;;;8.30;;
22176;SDS011;11254;50.098;8.726;2023-06-26T01:25:29;12.82;;;8.25;;
22176;SDS011;11254;50.098;8.726;2023-06-26T01:28:06;12.88;;;8.98;;
22176;SDS011;11254;50.098;8.726;2023-06-26T01:30:35;12.98;;;9.23;;
22176;SDS011;11254;50.098;8.726;2023-06-26T01:33:05;11.85;;;8.98;;
22176;SDS011;11254;50.098;8.726;2023-06-26T01:35:33;11.48;;;8.50;;
22176;SDS011;11254;50.098;8.726;2023-06-26T01:38:11;14.05;;;9.27;;
22176;SDS011;11254;50.098;8.726;2023-06-26T01:40:40;13.15;;;8.80;;
22176;SDS011;11254;50.098;8.726;2023-06-26T01:43:15;11.98;;;8.52;;
22176;SDS011;11254;50.098;8.726;2023-06-26T01:45:48;13.55;;;9.38;;
22176;SDS011;11254;50.098;8.726;2023-06-26T01:48:19;14.25;;;9.10;;
22176;SDS011;11254;50.098;8.726;2023-06-26T01:50:49;13.35;;;9.07;;
22176;SDS011;11254;50.098;8.726;2023-06-26T01:53:19;12.30;;;8.57;;
22176;SDS011;11254;50.098;8.726;2023-06-26T01:55:50;13.23;;;9.18;;
22176;SDS011;11254;50.098;8.726;2023-06-26T01:58:22;12.00;;;8.15;;
22176;SDS011;11254;50.098;8.726;2023-06-26T02:00:51;11.88;;;8.73;;
22176;SDS011;11254;50.098;8.726;2023-06-26T02:03:20;13.43;;;9.57;;
22176;SDS011;11254;50.098;8.726;2023-06-26T02:05:51;13.07;;;8.98;;
22176;SDS011;11254;50.098;8.726;2023-06-26T02:08:19;14.00;;;8.93;;
22176;SDS011;11254;50.098;8.726;2023-06-26T02:10:49;10.68;;;7.70;;
22176;SDS011;11254;50.098;8.726;2023-06-26T02:13:17;13.65;;;9.15;;
22176;SDS011;11254;50.098;8.726;2023-06-26T02:15:47;12.73;;;8.38;;
22176;SDS011;11254;50.098;8.726;2023-06-26T02:18:16;12.32;;;8.85;;
22176;SDS011;11254;50.098;8.726;2023-06-26T02:20:44;15.88;;;9.20;;
22176;SDS011;11254;50.098;8.726;2023-06-26T02:23:12;13.15;;;9.27;;
22176;SDS011;11254;50.098;8.726;2023-06-26T02:25:41;11.70;;;8.73;;
22176;SDS011;11254;50.098;8.726;2023-06-26T02:28:09;12.75;;;8.93;;
22176;SDS011;11254;50.098;8.726;2023-06-26T02:30:38;12.27;;;8.95;;
22176;SDS011;11254;50.098;8.726;2023-06-26T02:33:08;11.80;;;8.48;;
22176;SDS011;11254;50.098;8.726;2023-06-26T02:35:36;11.57;;;8.43;;
22176;SDS011;11254;50.098;8.726;2023-06-26T02:38:05;15.65;;;9.68;;
22176;SDS011;11254;50.098;8.726;2023-06-26T02:40:33;13.20;;;9.18;;
22176;SDS011;11254;50.098;8.726;2023-06-26T02:43:03;13.80;;;8.82;;
22176;SDS011;11254;50.098;8.726;2023-06-26T02:45:31;14.05;;;8.70;;
22176;SDS011;11254;50.098;8.726;2023-06-26T02:48:00;12.50;;;8.55;;
22176;SDS011;11254;50.098;8.726;2023-06-26T02:50:32;15.55;;;10.05;;
22176;SDS011;11254;50.098;8.726;2023-06-26T02:53:11;12.30;;;9.27;;
22176;SDS011;11254;50.098;8.726;2023-06-26T02:55:43;13.70;;;9.30;;
22176;SDS011;11254;50.098;8.726;2023-06-26T02:58:14;14.13;;;9.70;;
22176;SDS011;11254;50.098;8.726;2023-06-26T03:00:43;13.52;;;10.05;;
22176;SDS011;11254;50.098;8.726;2023-06-26T03:03:15;11.75;;;7.93;;
22176;SDS011;11254;50.098;8.726;2023-06-26T03:05:46;12.50;;;8.38;;
22176;SDS011;11254;50.098;8.726;2023-06-26T03:08:14;13.60;;;9.30;;
22176;SDS011;11254;50.098;8.726;2023-06-26T03:10:43;13.82;;;9.00;;
22176;SDS011;11254;50.098;8.726;2023-06-26T03:13:11;12.98;;;8.50;;
22176;SDS011;11254;50.098;8.726;2023-06-26T03:15:40;13.05;;;9.05;;
22176;SDS011;11254;50.098;8.726;2023-06-26T03:18:11;13.98;;;8.63;;
22176;SDS011;11254;50.098;8.726;2023-06-26T03:20:40;11.85;;;8.48;;
22176;SDS011;11254;50.098;8.726;2023-06-26T03:23:12;13.60;;;9.00;;
22176;SDS011;11254;50.098;8.726;2023-06-26T03:25:41;13.13;;;8.80;;
22176;SDS011;11254;50.098;8.726;2023-06-26T03:28:21;18.42;;;8.73;;
22176;SDS011;11254;50.098;8.726;2023-06-26T03:30:49;15.60;;;9.02;;
22176;SDS011;11254;50.098;8.726;2023-06-26T03:33:18;13.85;;;9.60;;
22176;SDS011;11254;50.098;8.726;2023-06-26T03:35:47;11.88;;;8.65;;
22176;SDS011;11254;50.098;8.726;2023-06-26T03:38:16;14.90;;;8.82;;
22176;SDS011;11254;50.098;8.726;2023-06-26T03:40:46;13.43;;;8.88;;
22176;SDS011;11254;50.098;8.726;2023-06-26T03:43:15;12.52;;;9.20;;
22176;SDS011;11254;50.098;8.726;2023-06-26T03:46:00;13.40;;;9.52;;
22176;SDS011;11254;50.098;8.726;2023-06-26T03:48:28;16.45;;;9.00;;
22176;SDS011;11254;50.098;8.726;2023-06-26T03:50:57;13.18;;;9.10;;
22176;SDS011;11254;50.098;8.726;2023-06-26T03:53:29;12.23;;;8.63;;
22176;SDS011;11254;50.098;8.726;2023-06-26T03:55:58;12.07;;;9.02;;
22176;SDS011;11254;50.098;8.726;2023-06-26T03:58:26;13.93;;;9.57;;
22176;SDS011;11254;50.098;8.726;2023-06-26T04:00:54;11.25;;;8.60;;
22176;SDS011;11254;50.098;8.726;2023-06-26T04:03:24;13.65;;;9.13;;
22176;SDS011;11254;50.098;8.726;2023-06-26T04:05:52;15.05;;;9.73;;
22176;SDS011;11254;50.098;8.726;2023-06-26T04:08:23;12.30;;;8.55;;
22176;SDS011;11254;50.098;8.726;2023-06-26T04:10:54;13.07;;;8.82;;
22176;SDS011;11254;50.098;8.726;2023-06-26T04:13:25;13.32;;;8.98;;
22176;SDS011;11254;50.098;8.726;2023-06-26T04:15:53;13.93;;;9.13;;
22176;SDS011;11254;50.098;8.726;2023-06-26T04:18:22;12.65;;;9.18;;
22176;SDS011;11254;50.098;8.726;2023-06-26T04:21:07;15.35;;;9.57;;
22176;SDS011;11254;50.098;8.726;2023-06-26T04:23:37;14.35;;;9.05;;
22176;SDS011;11254;50.098;8.726;2023-06-26T04:26:07;14.93;;;9.40;;
22176;SDS011;11254;50.098;8.726;2023-06-26T04:28:41;15.10;;;9.40;;
22176;SDS011;11254;50.098;8.726;2023-06-26T04:31:09;13.90;;;9.02;;
22176;SDS011;11254;50.098;8.726;2023-06-26T04:33:38;13.95;;;9.45;;
22176;SDS011;11254;50.098;8.726;2023-06-26T04:36:09;15.00;;;9.80;;
22176;SDS011;11254;50.098;8.726;2023-06-26T04:38:37;15.43;;;9.50;;
22176;SDS011;11254;50.098;8.726;2023-06-26T04:41:07;12.45;;;9.20;;
22176;SDS011;11254;50.098;8.726;2023-06-26T04:43:36;12.85;;;8.90;;
22176;SDS011;11254;50.098;8.726;2023-06-26T04:46:04;13.85;;;8.38;;
22176;SDS011;11254;50.098;8.726;2023-06-26T04:48:34;12.82;;;8.50;;
22176;SDS011;11254;50.098;8.726;2023-06-26T04:51:02;12.32;;;8.68;;
22176;SDS011;11254;50.098;8.726;2023-06-26T04:53:32;12.52;;;8.70;;
22176;SDS011;11254;50.098;8.726;2023-06-26T04:56:01;13.48;;;8.73;;
22176;SDS011;11254;50.098;8.726;2023-06-26T04:58:32;13.15;;;8.57;;
22176;SDS011;11254;50.098;8.726;2023-06-26T05:01:00;12.85;;;9.15;;
22176;SDS011;11254;50.098;8.726;2023-06-26T05:03:29;12.55;;;8.50;;
22176;SDS011;11254;50.098;8.726;2023-06-26T05:05:58;12.15;;;8.43;;
22176;SDS011;11254;50.098;8.726;2023-06-26T05:08:34;12.77;;;8.77;;
22176;SDS011;11254;50.098;8.726;2023-06-26T05:11:02;12.48;;;8.45;;
22176;SDS011;11254;50.098;8.726;2023-06-26T05:13:33;12.43;;;8.43;;
22176;SDS011;11254;50.098;8.726;2023-06-26T05:16:02;13.25;;;8.15;;
22176;SDS011;11254;50.098;8.726;2023-06-26T05:18:31;12.80;;;8.43;;
22176;SDS011;11254;50.098;8.726;2023-06-26T05:20:59;13.27;;;8.07;;
22176;SDS011;11254;50.098;8.726;2023-06-26T05:23:29;13.85;;;8.70;;
22176;SDS011;11254;50.098;8.726;2023-06-26T05:25:58;12.20;;;8.00;;
22176;SDS011;11254;50.098;8.726;2023-06-26T05:28:27;11.05;;;7.63;;
22176;SDS011;11254;50.098;8.726;2023-06-26T05:31:02;12.02;;;8.10;;
22176;SDS011;11254;50.098;8.726;2023-06-26T05:33:32;12.45;;;8.00;;
22176;SDS011;11254;50.098;8.726;2023-06-26T05:36:04;12.48;;;8.13;;
22176;SDS011;11254;50.098;8.726;2023-06-26T05:38:33;14.05;;;9.60;;
22176;SDS011;11254;50.098;8.726;2023-06-26T05:41:01;11.90;;;8.18;;
22176;SDS011;11254;50.098;8.726;2023-06-26T05:43:30;13.13;;;8.38;;
22176;SDS011;11254;50.098;8.726;2023-06-26T05:45:58;13.93;;;7.53;;
22176;SDS011;11254;50.098;8.726;2023-06-26T05:48:28;12.40;;;8.48;;
22176;SDS011;11254;50.098;8.726;2023-06-26T05:50:57;13.18;;;8.32;;
22176;SDS011;11254;50.098;8.726;2023-06-26T05:53:26;12.55;;;8.18;;
22176;SDS011;11254;50.098;8.726;2023-06-26T05:55:56;12.00;;;7.65;;
22176;SDS011;11254;50.098;8.726;2023-06-26T13:05:49;9.38;;;6.00;;
22176;SDS011;11254;50.098;8.726;2023-06-26T13:08:18;8.73;;;5.45;;
22176;SDS011;11254;50.098;8.726;2023-06-26T13:10:46;8.05;;;5.45;;
22176;SDS011;11254;50.098;8.726;2023-06-26T13:13:14;9.35;;;6.03;;
22176;SDS011;11254;50.098;8.726;2023-06-26T13:15:43;9.23;;;5.60;;
22176;SDS011;11254;50.098;8.726;2023-06-26T13:18:12;9.10;;;5.82;;
22176;SDS011;11254;50.098;8.726;2023-06-26T13:20:40;8.25;;;5.90;;
22176;SDS011;11254;50.098;8.726;2023-06-26T13:23:10;9.80;;;5.53;;
22176;SDS011;11254;50.098;8.726;2023-06-26T13:25:39;11.00;;;5.70;;
22176;SDS011;11254;50.098;8.726;2023-06-26T13:28:08;8.93;;;5.60;;
22176;SDS011;11254;50.098;8.726;2023-06-26T13:30:36;9.18;;;5.88;;
22176;SDS011;11254;50.098;8.726;2023-06-26T13:33:05;9.18;;;5.38;;
22176;SDS011;11254;50.098;8.726;2023-06-26T13:35:34;9.05;;;5.38;;
22176;SDS011;11254;50.098;8.726;2023-06-26T13:38:02;8.02;;;5.30;;
22176;SDS011;11254;50.098;8.726;2023-06-26T13:40:34;9.38;;;5.50;;
22176;SDS011;11254;50.098;8.726;2023-06-26T13:43:03;13.23;;;5.40;;
22176;SDS011;11254;50.098;8.726;2023-06-26T13:45:32;10.73;;;5.32;;
22176;SDS011;11254;50.098;8.726;2023-06-26T13:48:01;7.72;;;5.05;;
22176;SDS011;11254;50.098;8.726;2023-06-26T13:50:30;10.23;;;5.18;;
22176;SDS011;11254;50.098;8.726;2023-06-26T13:53:18;9.65;;;5.40;;
22176;SDS011;11254;50.098;8.726;2023-06-26T13:55:47;8.65;;;4.95;;
22176;SDS011;11254;50.098;8.726;2023-06-26T13:58:16;9.60;;;5.15;;
22176;SDS011;11254;50.098;8.726;2023-06-26T14:00:48;8.63;;;4.97;;
22176;SDS011;11254;50.098;8.726;2023-06-26T14:03:19;6.15;;;4.53;;
22176;SDS011;11254;50.098;8.726;2023-06-26T14:05:48;7.63;;;4.50;;
22176;SDS011;11254;50.098;8.726;2023-06-26T14:08:16;10.43;;;4.30;;
22176;SDS011;11254;50.098;8.726;2023-06-26T14:10:45;7.28;;;3.78;;
22176;SDS011;11254;50.098;8.726;2023-06-26T14:13:15;13.43;;;4.43;;
22176;SDS011;11254;50.098;8.726;2023-06-26T14:15:46;7.28;;;4.22;;
22176;SDS011;11254;50.098;8.726;2023-06-26T14:18:15;8.95;;;4.03;;
22176;SDS011;11254;50.098;8.726;2023-06-26T14:20:44;8.45;;;3.83;;
22176;SDS011;11254;50.098;8.726;2023-06-26T14:23:12;7.55;;;4.10;;
22176;SDS011;11254;50.098;8.726;2023-06-26T14:25:41;9.25;;;3.83;;
22176;SDS011;11254;50.098;8.726;2023-06-26T14:28:11;6.72;;;3.83;;
22176;SDS011;11254;50.098;8.726;2023-06-26T14:30:41;12.95;;;3.75;;
22176;SDS011;11254;50.098;8.726;2023-06-26T14:33:10;6.43;;;3.35;;
22176;SDS011;11254;50.098;8.726;2023-06-26T14:35:38;11.85;;;3.85;;
22176;SDS011;11254;50.098;8.726;2023-06-26T14:38:07;6.93;;;3.03;;
22176;SDS011;11254;50.098;8.726;2023-06-26T14:40:35;6.35;;;3.28;;
22176;SDS011;11254;50.098;8.726;2023-06-26T14:43:04;7.93;;;3.50;;
22176;SDS011;11254;50.098;8.726;2023-06-26T14:45:33;8.65;;;3.47;;
22176;SDS011;11254;50.098;8.726;2023-06-26T14:48:04;6.38;;;3.55;;
22176;SDS011;11254;50.098;8.726;2023-06-26T14:50:32;7.00;;;2.97;;
22176;SDS011;11254;50.098;8.726;2023-06-26T14:53:01;5.82;;;3.35;;
22176;SDS011;11254;50.098;8.726;2023-06-26T14:55:29;6.82;;;3.42;;
22176;SDS011;11254;50.098;8.726;2023-06-26T14:57:58;6.43;;;3.20;;
22176;SDS011;11254;50.098;8.726;2023-06-26T15:00:26;5.72;;;2.90;;
22176;SDS011;11254;50.098;8.726;2023-06-26T15:02:54;5.10;;;2.90;;
22176;SDS011;11254;50.098;8.726;2023-06-26T15:05:26;7.03;;;2.85;;
22176;SDS011;11254;50.098;8.726;2023-06-26T15:07:54;16.35;;;2.72;;
22176;SDS011;11254;50.098;8.726;2023-06-26T15:10:23;5.40;;;2.60;;
22176;SDS011;11254;50.098;8.726;2023-06-26T15:12:54;5.05;;;2.50;;
22176;SDS011;11254;50.098;8.726;2023-06-26T15:15:23;6.00;;;2.72;;
22176;SDS011;11254;50.098;8.726;2023-06-26T15:17:52;8.63;;;2.95;;
22176;SDS011;11254;50.098;8.726;2023-06-26T15:20:20;6.03;;;2.47;;
22176;SDS011;11254;50.098;8.726;2023-06-26T15:22:50;4.22;;;2.30;;
22176;SDS011;11254;50.098;8.726;2023-06-26T15:25:18;5.85;;;2.60;;
22176;SDS011;11254;50.098;8.726;2023-06-26T15:27:47;6.63;;;2.65;;
22176;SDS011;11254;50.098;8.726;2023-06-26T15:30:16;9.07;;;2.40;;
22176;SDS011;11254;50.098;8.726;2023-06-26T15:32:45;5.40;;;2.50;;
22176;SDS011;11254;50.098;8.726;2023-06-26T15:35:13;4.45;;;2.15;;
22176;SDS011;11254;50.098;8.726;2023-06-26T15:37:42;5.72;;;2.45;;
22176;SDS011;11254;50.098;8.726;2023-06-26T15:40:12;4.95;;;2.03;;
22176;SDS011;11254;50.098;8.726;2023-06-26T15:42:44;4.78;;;2.22;;
22176;SDS011;11254;50.098;8.726;2023-06-26T15:45:13;7.72;;;2.40;;
22176;SDS011;11254;50.098;8.726;2023-06-26T15:47:44;4.45;;;2.25;;
22176;SDS011;11254;50.098;8.726;2023-06-26T15:50:12;6.18;;;2.05;;
22176;SDS011;11254;50.098;8.726;2023-06-26T15:52:41;5.30;;;2.30;;
22176;SDS011;11254;50.098;8.726;2023-06-26T15:55:10;6.25;;;2.05;;
22176;SDS011;11254;50.098;8.726;2023-06-26T15:57:40;5.03;;;2.00;;
22176;SDS011;11254;50.098;8.726;2023-06-26T16:00:09;6.40;;;2.08;;
22176;SDS011;11254;50.098;8.726;2023-06-26T16:02:38;4.97;;;1.92;;
22176;SDS011;11254;50.098;8.726;2023-06-26T16:05:07;4.45;;;1.90;;
22176;SDS011;11254;50.098;8.726;2023-06-26T16:07:35;9.23;;;2.40;;
22176;SDS011;11254;50.098;8.726;2023-06-26T16:10:22;6.53;;;2.15;;
22176;SDS011;11254;50.098;8.726;2023-06-26T16:12:52;4.60;;;1.80;;
22176;SDS011;11254;50.098;8.726;2023-06-26T16:15:21;8.02;;;1.98;;
22176;SDS011;11254;50.098;8.726;2023-06-26T16:17:49;7.13;;;1.85;;
22176;SDS011;11254;50.098;8.726;2023-06-26T16:20:18;4.97;;;1.75;;
22176;SDS011;11254;50.098;8.726;2023-06-26T16:22:46;6.95;;;2.17;;
22176;SDS011;11254;50.098;8.726;2023-06-26T16:25:15;5.25;;;2.33;;
22176;SDS011;11254;50.098;8.726;2023-06-26T16:27:43;5.63;;;1.77;;
22176;SDS011;11254;50.098;8.726;2023-06-26T16:30:14;4.90;;;1.90;;
22176;SDS011;11254;50.098;8.726;2023-06-26T16:32:44;5.40;;;1.70;;
22176;SDS011;11254;50.098;8.726;2023-06-26T16:35:12;6.35;;;2.42;;
22176;SDS011;11254;50.098;8.726;2023-06-26T16:37:41;3.95;;;1.90;;
22176;SDS011;11254;50.098;8.726;2023-06-26T16:40:11;6.25;;;2.10;;
22176;SDS011;11254;50.098;8.726;2023-06-26T16:42:41;5.82;;;1.80;;
22176;SDS011;11254;50.098;8.726;2023-06-26T16:45:10;7.15;;;2.10;;
22176;SDS011;11254;50.098;8.726;2023-06-26T16:47:40;6.50;;;1.77;;
22176;SDS011;11254;50.098;8.726;2023-06-26T16:50:08;7.97;;;2.38;;
22176;SDS011;11254;50.098;8.726;2023-06-26T16:52:37;5.20;;;1.90;;
22176;SDS011;11254;50.098;8.726;2023-06-26T16:55:07;5.68;;;2.10;;
22176;SDS011;11254;50.098;8.726;2023-06-26T16:57:36;5.95;;;1.98;;
22176;SDS011;11254;50.098;8.726;2023-06-26T17:00:05;4.57;;;2.20;;
22176;SDS011;11254;50.098;8.726;2023-06-26T17:02:33;6.65;;;2.03;;
22176;SDS011;11254;50.098;8.726;2023-06-26T17:05:04;8.50;;;2.00;;
22176;SDS011;11254;50.098;8.726;2023-06-26T17:07:32;6.53;;;2.13;;
22176;SDS011;11254;50.098;8.726;2023-06-26T17:10:02;6.45;;;2.00;;
22176;SDS011;11254;50.098;8.726;2023-06-26T17:12:31;8.35;;;2.30;;
22176;SDS011;11254;50.098;8.726;2023-06-26T17:14:59;5.85;;;2.17;;
22176;SDS011;11254;50.098;8.726;2023-06-26T17:17:30;4.55;;;2.10;;
22176;SDS011;11254;50.098;8.726;2023-06-26T17:19:58;4.53;;;1.75;;
22176;SDS011;11254;50.098;8.726;2023-06-26T17:22:28;6.40;;;2.15;;
22176;SDS011;11254;50.098;8.726;2023-06-26T17:24:59;5.30;;;2.30;;
22176;SDS011;11254;50.098;8.726;2023-06-26T17:27:30;5.60;;;2.00;;
22176;SDS011;11254;50.098;8.726;2023-06-26T17:29:59;5.90;;;2.15;;
22176;SDS011;11254;50.098;8.726;2023-06-26T17:32:29;5.80;;;2.33;;
22176;SDS011;11254;50.098;8.726;2023-06-26T17:34:58;4.43;;;1.85;;
22176;SDS011;11254;50.098;8.726;2023-06-26T17:37:29;6.25;;;1.83;;
22176;SDS011;11254;50.098;8.726;2023-06-26T17:39:58;6.85;;;1.75;;
22176;SDS011;11254;50.098;8.726;2023-06-26T17:42:26;6.95;;;2.20;;
22176;SDS011;11254;50.098;8.726;2023-06-26T17:44:55;4.03;;;1.60;;
22176;SDS011;11254;50.098;8.726;2023-06-26T17:47:23;6.78;;;2.22;;
22176;SDS011;11254;50.098;8.726;2023-06-26T17:49:54;4.05;;;1.58;;
22176;SDS011;11254;50.098;8.726;2023-06-26T17:52:22;6.38;;;2.05;;
22176;SDS011;11254;50.098;8.726;2023-06-26T17:54:52;4.53;;;1.80;;
22176;SDS011;11254;50.098;8.726;2023-06-26T17:57:20;5.38;;;2.00;;
